Time;durP1;ratioP1;P1;durP2;ratioP2;P2;SDS_P1;SDS_P2;PMS_P1;PMS_P2;Temp;Humidity;BMP_temperature;BMP_pressure;BME280_temperature;BME280_humidity;BME280_pressure;Samples;Min_cycle;Max_cycle;Signal;HPM_P1;HPM_P2
2021/11/27 00:04:04;;;;;;;4.90;4.40;;;6.30;95.30;;;;;;10530684;28;20230;-81
2021/11/27 00:09:08;;;;;;;4.30;3.90;;;6.20;95.00;;;;;;10516691;28;20220;-82
2021/11/27 00:14:11;;;;;;;4.77;4.37;;;6.20;94.90;;;;;;10541144;28;20227;-82
2021/11/27 00:19:13;;;;;;;4.27;3.97;;;6.20;95.00;;;;;;10538834;28;20644;-81
2021/11/27 00:24:17;;;;;;;5.90;5.33;;;6.20;95.10;;;;;;10500247;28;20262;-82
2021/11/27 00:29:19;;;;;;;4.60;4.20;;;6.10;95.90;;;;;;10516548;28;20571;-81
2021/11/27 00:34:21;;;;;;;4.40;4.10;;;6.10;96.60;;;;;;10516331;28;20643;-81
2021/11/27 00:39:25;;;;;;;4.70;4.30;;;6.20;95.60;;;;;;10544281;28;20196;-81
2021/11/27 00:44:27;;;;;;;4.63;4.30;;;6.20;96.50;;;;;;10519764;28;20227;-82
2021/11/27 00:49:29;;;;;;;4.67;4.27;;;6.20;97.10;;;;;;10523219;28;20232;-82
2021/11/27 00:54:32;;;;;;;4.57;4.27;;;6.30;96.60;;;;;;10530981;28;20270;-81
2021/11/27 00:59:35;;;;;;;4.13;3.83;;;6.30;95.40;;;;;;10518132;28;20231;-81
2021/11/27 01:04:37;;;;;;;4.97;4.57;;;6.30;96.90;;;;;;10516079;28;20263;-82
2021/11/27 01:09:41;;;;;;;4.67;4.37;;;6.30;95.70;;;;;;10530531;28;20253;-82
2021/11/27 01:14:43;;;;;;;5.07;4.67;;;6.40;95.60;;;;;;10509855;28;20232;-80
2021/11/27 01:19:46;;;;;;;4.93;4.50;;;6.30;95.30;;;;;;10514906;28;20588;-80
2021/11/27 01:24:50;;;;;;;5.10;4.70;;;6.30;96.00;;;;;;10517663;28;20223;-80
2021/11/27 01:29:52;;;;;;;5.30;4.90;;;6.30;95.60;;;;;;10529281;28;20224;-81
2021/11/27 01:34:54;;;;;;;5.77;5.20;;;6.20;96.50;;;;;;10535195;28;20287;-81
2021/11/27 01:39:58;;;;;;;5.17;4.80;;;6.20;96.90;;;;;;10541564;28;20632;-81
2021/11/27 01:45:00;;;;;;;5.40;5.00;;;6.10;96.80;;;;;;10540943;28;20620;-81
2021/11/27 01:50:05;;;;;;;5.30;4.90;;;6.20;96.90;;;;;;10535435;28;20314;-81
2021/11/27 01:55:09;;;;;;;5.20;4.80;;;6.30;96.60;;;;;;10539890;28;20221;-81
2021/11/27 02:00:15;;;;;;;5.20;4.80;;;6.30;96.60;;;;;;10541759;28;20224;-82
2021/11/27 02:05:21;;;;;;;8.73;5.33;;;6.30;97.10;;;;;;10552126;28;20208;-81
2021/11/27 02:10:28;;;;;;;7.30;5.90;;;6.30;96.90;;;;;;10528614;28;20227;-81
2021/11/27 02:15:31;;;;;;;4.97;4.57;;;6.30;97.70;;;;;;10506303;28;20556;-80
2021/11/27 02:20:36;;;;;;;5.30;4.90;;;6.40;97.40;;;;;;10534522;28;20788;-81
2021/11/27 02:25:38;;;;;;;5.10;4.70;;;6.40;97.30;;;;;;10531371;28;20267;-80
2021/11/27 02:30:42;;;;;;;5.63;5.13;;;6.50;96.60;;;;;;10513576;28;20248;-82
2021/11/27 02:35:48;;;;;;;8.80;4.97;;;6.50;97.50;;;;;;10518684;28;20212;-82
2021/11/27 02:40:51;;;;;;;4.93;4.20;;;6.50;98.00;;;;;;10513416;28;20296;-82
2021/11/27 02:45:53;;;;;;;6.67;6.07;;;6.50;96.80;;;;;;10514499;28;20218;-82
2021/11/27 02:50:57;;;;;;;6.03;5.43;;;6.50;97.60;;;;;;10531272;28;20242;-82
2021/11/27 02:56:00;;;;;;;5.73;5.03;;;6.50;97.70;;;;;;10512366;28;20227;-83
2021/11/27 03:01:06;;;;;;;5.93;5.30;;;6.50;97.70;;;;;;10526684;28;20220;-82
2021/11/27 03:06:09;;;;;;;5.53;5.03;;;6.50;97.50;;;;;;10511127;28;20210;-82
2021/11/27 03:11:12;;;;;;;5.80;5.20;;;6.50;98.40;;;;;;10499955;28;20236;-82
2021/11/27 03:16:15;;;;;;;6.00;5.40;;;6.50;98.20;;;;;;10535799;28;20208;-82
2021/11/27 03:21:19;;;;;;;5.63;5.13;;;6.60;98.10;;;;;;10527925;28;20230;-82
2021/11/27 03:26:21;;;;;;;6.30;5.73;;;6.60;98.40;;;;;;10520377;28;20273;-83
2021/11/27 03:31:24;;;;;;;5.53;5.07;;;6.60;98.30;;;;;;10504456;28;20270;-82
2021/11/27 03:36:29;;;;;;;5.47;5.07;;;6.60;96.90;;;;;;10523297;28;20204;-82
2021/11/27 03:41:32;;;;;;;4.60;4.20;;;6.60;97.90;;;;;;10503198;28;20227;-82
2021/11/27 03:46:35;;;;;;;5.20;4.80;;;6.70;98.10;;;;;;10502591;28;20496;-82
2021/11/27 03:51:39;;;;;;;4.60;4.20;;;6.60;99.50;;;;;;10534154;28;20232;-82
2021/11/27 03:56:42;;;;;;;5.27;4.73;;;6.60;99.90;;;;;;10517007;28;20234;-82
2021/11/27 04:01:45;;;;;;;4.37;4.07;;;6.60;99.90;;;;;;10540869;28;20251;-83
2021/11/27 04:06:49;;;;;;;5.10;4.70;;;6.50;99.90;;;;;;10524237;28;20211;-82
2021/11/27 04:11:52;;;;;;;5.77;5.27;;;6.50;99.90;;;;;;10544911;28;20235;-82
2021/11/27 04:17:05;;;;;;;4.10;3.80;;;6.50;99.90;;;;;;10539221;28;20215;-82
2021/11/27 04:22:10;;;;;;;4.20;3.90;;;6.50;99.90;;;;;;10546719;28;20275;-82
2021/11/27 04:27:15;;;;;;;3.73;3.47;;;6.50;99.90;;;;;;10540792;28;20207;-82
2021/11/27 04:32:17;;;;;;;4.03;3.63;;;6.50;99.90;;;;;;10533405;28;20307;-82
2021/11/27 04:37:33;;;;;;;3.27;3.03;;;6.50;99.90;;;;;;10524662;28;20218;-82
2021/11/27 04:42:36;;;;;;;2.80;2.63;;;6.50;99.90;;;;;;10534556;28;20219;-82
2021/11/27 04:47:39;;;;;;;2.23;2.13;;;6.60;99.90;;;;;;10517565;28;20227;-82
2021/11/27 04:52:43;;;;;;;2.10;2.00;;;6.60;99.90;;;;;;10526831;28;20719;-82
2021/11/27 04:57:46;;;;;;;2.40;2.30;;;6.50;99.90;;;;;;10518278;28;20706;-82
2021/11/27 05:02:48;;;;;;;1.80;1.70;;;6.50;99.90;;;;;;10516398;28;20224;-82
2021/11/27 05:07:53;;;;;;;2.10;2.00;;;6.60;99.90;;;;;;10524244;28;20208;-82
2021/11/27 05:12:56;;;;;;;2.07;1.97;;;6.50;99.90;;;;;;10548731;28;20239;-82
2021/11/27 05:17:58;;;;;;;2.10;2.00;;;6.50;99.90;;;;;;10503388;28;20737;-82
2021/11/27 05:23:11;;;;;;;2.20;2.10;;;6.50;99.90;;;;;;10510973;28;20607;-82
2021/11/27 05:28:13;;;;;;;1.83;1.73;;;6.60;99.90;;;;;;10515830;28;20204;-82
2021/11/27 05:33:36;;;;;;;2.17;2.07;;;6.60;99.90;;;;;;10510369;28;20264;-82
2021/11/27 05:38:43;;;;;;;1.97;1.87;;;6.60;99.90;;;;;;10509349;28;20207;-83
2021/11/27 05:43:45;;;;;;;1.80;1.70;;;6.60;99.90;;;;;;10553163;28;20318;-82
2021/11/27 05:48:48;;;;;;;1.83;1.70;;;6.60;99.90;;;;;;10534776;28;20263;-82
2021/11/27 05:54:21;;;;;;;1.50;1.50;;;6.60;99.90;;;;;;10497565;28;20236;-82
2021/11/27 05:59:23;;;;;;;2.10;2.00;;;6.60;99.90;;;;;;10510522;28;20291;-82
2021/11/27 06:04:25;;;;;;;1.80;1.70;;;6.50;99.90;;;;;;10527310;28;20314;-82
2021/11/27 06:09:29;;;;;;;1.97;1.87;;;6.50;99.90;;;;;;10521854;28;20230;-82
2021/11/27 06:14:33;;;;;;;1.83;1.73;;;6.50;99.90;;;;;;10546841;28;20254;-82
2021/11/27 06:19:35;;;;;;;2.10;2.00;;;6.60;99.90;;;;;;10553448;28;20733;-82
2021/11/27 06:24:38;;;;;;;2.10;2.00;;;6.50;99.90;;;;;;10534816;28;20251;-82
2021/11/27 06:29:40;;;;;;;2.23;2.10;;;6.50;99.90;;;;;;10537638;28;20695;-82
2021/11/27 06:34:43;;;;;;;2.00;1.90;;;6.50;99.90;;;;;;10530874;28;20208;-82
2021/11/27 06:39:47;;;;;;;2.30;2.20;;;6.50;99.90;;;;;;10508151;28;20639;-82
2021/11/27 06:44:49;;;;;;;2.30;2.20;;;6.50;99.90;;;;;;10507601;28;20672;-82
2021/11/27 06:49:56;;;;;;;2.40;2.30;;;6.50;99.90;;;;;;10495877;28;20259;-82
2021/11/27 06:55:00;;;;;;;2.30;2.20;;;6.50;99.90;;;;;;10511696;28;20203;-83
2021/11/27 07:00:02;;;;;;;2.37;2.27;;;6.50;99.90;;;;;;10526144;28;20211;-82
2021/11/27 07:05:43;;;;;;;2.10;2.00;;;6.40;99.90;;;;;;10540063;28;20212;-81
2021/11/27 07:10:50;;;;;;;2.00;1.90;;;6.40;99.90;;;;;;10513545;28;20228;-83
2021/11/27 07:15:57;;;;;;;2.20;2.10;;;6.40;99.90;;;;;;10509421;28;20216;-82
2021/11/27 07:20:59;;;;;;;2.00;1.90;;;6.50;99.90;;;;;;10540111;28;20219;-82
2021/11/27 07:26:03;;;;;;;2.00;1.90;;;6.50;99.90;;;;;;10543829;28;20195;-82
2021/11/27 07:31:05;;;;;;;2.00;1.90;;;6.50;99.90;;;;;;10525842;28;20232;-82
2021/11/27 07:36:08;;;;;;;2.33;2.23;;;6.50;99.90;;;;;;10510199;28;20207;-83
2021/11/27 07:41:12;;;;;;;2.30;2.20;;;6.50;99.90;;;;;;10527849;28;20580;-83
2021/11/27 07:46:16;;;;;;;2.20;2.10;;;6.60;99.90;;;;;;10506579;28;20207;-82
2021/11/27 07:51:37;;;;;;;2.10;2.00;;;6.60;99.90;;;;;;10522574;28;20240;-81
2021/11/27 07:56:45;;;;;;;2.10;2.00;;;6.60;99.90;;;;;;10488509;28;20224;-82
2021/11/27 08:01:47;;;;;;;2.40;2.20;;;6.70;99.90;;;;;;10504008;28;20225;-81
2021/11/27 08:06:49;;;;;;;2.40;2.30;;;6.60;99.90;;;;;;10480796;28;20556;-82
2021/11/27 08:11:53;;;;;;;2.30;2.20;;;6.70;99.90;;;;;;10512454;28;20227;-82
2021/11/27 08:16:55;;;;;;;2.67;2.27;;;6.70;99.90;;;;;;10501623;28;20199;-81
2021/11/27 08:21:57;;;;;;;2.10;2.00;;;6.60;99.90;;;;;;10525835;28;20228;-82
2021/11/27 08:27:00;;;;;;;2.13;2.03;;;6.60;99.90;;;;;;10543050;28;20192;-82
2021/11/27 08:32:02;;;;;;;2.10;2.00;;;6.60;99.90;;;;;;10497687;28;20240;-80
2021/11/27 08:37:05;;;;;;;2.27;2.17;;;6.60;99.90;;;;;;10490302;28;20224;-81
2021/11/27 08:42:09;;;;;;;2.30;1.67;;;6.70;99.90;;;;;;10506924;28;20246;-80
2021/11/27 08:47:11;;;;;;;2.30;2.20;;;6.80;99.90;;;;;;10504696;28;20218;-80
2021/11/27 08:52:13;;;;;;;2.13;2.03;;;6.90;99.90;;;;;;10500816;28;20303;-80
2021/11/27 08:57:17;;;;;;;2.93;2.63;;;7.00;99.90;;;;;;10497465;28;20212;-81
2021/11/27 09:02:19;;;;;;;2.40;2.20;;;7.10;99.90;;;;;;10531914;28;20213;-81
2021/11/27 09:07:22;;;;;;;2.30;2.20;;;7.30;99.90;;;;;;10495678;28;20257;-82
2021/11/27 09:12:25;;;;;;;2.10;2.00;;;7.50;99.90;;;;;;10525571;28;20227;-79
2021/11/27 09:17:28;;;;;;;1.90;1.80;;;7.60;99.90;;;;;;10548514;28;20212;-79
2021/11/27 09:22:30;;;;;;;2.53;2.10;;;7.80;99.60;;;;;;10553424;28;20416;-80
2021/11/27 09:27:33;;;;;;;2.33;2.13;;;7.80;99.90;;;;;;10551370;28;20683;-79
2021/11/27 09:32:35;;;;;;;1.70;1.60;;;7.90;99.70;;;;;;10558037;28;20228;-79
2021/11/27 09:37:38;;;;;;;2.47;2.20;;;7.90;99.90;;;;;;10552576;28;20230;-80
2021/11/27 09:42:42;;;;;;;2.40;2.20;;;8.00;99.80;;;;;;10544570;28;20232;-79
2021/11/27 09:47:46;;;;;;;3.20;2.90;;;8.10;99.00;;;;;;10551889;28;20191;-80
2021/11/27 09:52:48;;;;;;;2.57;2.47;;;8.20;99.90;;;;;;10532827;28;20228;-80
2021/11/27 09:57:52;;;;;;;2.60;2.50;;;8.10;99.90;;;;;;10516330;28;20235;-80
2021/11/27 10:02:58;;;;;;;1.73;1.50;;;8.00;99.90;;;;;;10547544;28;20715;-80
2021/11/27 10:08:00;;;;;;;1.80;1.70;;;7.80;99.90;;;;;;10532924;28;20652;-80
2021/11/27 10:13:04;;;;;;;2.07;1.90;;;7.80;99.90;;;;;;10532752;28;20699;-80
2021/11/27 10:18:15;;;;;;;2.80;2.47;;;7.80;99.90;;;;;;10514576;28;20207;-80
2021/11/27 10:23:32;;;;;;;2.13;1.93;;;7.90;99.90;;;;;;10549899;28;20215;-80
2021/11/27 10:28:36;;;;;;;2.00;1.80;;;7.90;99.90;;;;;;10526108;28;20204;-80
2021/11/27 10:33:38;;;;;;;2.30;2.10;;;8.00;99.90;;;;;;10521044;28;20255;-80
2021/11/27 10:38:42;;;;;;;2.67;1.83;;;8.00;99.90;;;;;;10500203;28;20295;-80
2021/11/27 10:44:04;;;;;;;3.40;1.90;;;8.00;99.90;;;;;;10487065;28;20291;-79
2021/11/27 10:49:08;;;;;;;1.90;1.80;;;8.00;99.90;;;;;;10493170;28;20199;-79
2021/11/27 10:54:13;;;;;;;2.33;2.23;;;7.90;99.90;;;;;;10486636;28;20240;-80
2021/11/27 10:59:20;;;;;;;2.80;1.70;;;7.90;99.90;;;;;;10489743;28;20232;-80
2021/11/27 11:04:22;;;;;;;2.00;1.90;;;8.00;99.90;;;;;;10504859;28;20239;-80
2021/11/27 11:09:24;;;;;;;1.83;1.70;;;8.10;99.90;;;;;;10506615;28;20200;-80
2021/11/27 11:14:28;;;;;;;4.00;2.10;;;8.20;99.90;;;;;;10548252;28;20230;-80
2021/11/27 11:19:33;;;;;;;1.93;1.50;;;8.30;99.90;;;;;;10547802;28;20200;-80
2021/11/27 11:24:35;;;;;;;2.00;1.90;;;8.30;99.10;;;;;;10526783;28;20227;-80
2021/11/27 11:29:47;;;;;;;2.03;1.90;;;8.30;99.50;;;;;;10527215;28;20242;-80
2021/11/27 11:34:50;;;;;;;2.30;2.00;;;8.20;98.30;;;;;;10522235;28;20200;-80
2021/11/27 11:39:53;;;;;;;2.47;2.27;;;8.20;99.40;;;;;;10505793;28;20200;-80
2021/11/27 11:44:57;;;;;;;2.83;2.20;;;8.30;99.90;;;;;;10526024;28;20222;-80
2021/11/27 11:50:05;;;;;;;3.43;1.60;;;8.40;99.10;;;;;;10534191;28;20269;-79
2021/11/27 11:55:11;;;;;;;2.57;2.27;;;8.40;99.20;;;;;;10540681;28;20287;-80
2021/11/27 12:00:26;;;;;;;2.30;2.17;;;8.50;98.80;;;;;;10512141;28;20646;-81
2021/11/27 12:05:29;;;;;;;4.40;2.40;;;8.50;98.80;;;;;;10524521;28;20220;-80
2021/11/27 12:10:38;;;;;;;2.10;2.00;;;8.60;99.60;;;;;;10531895;28;20238;-80
2021/11/27 12:15:43;;;;;;;2.40;2.30;;;8.60;98.30;;;;;;10527396;28;20295;-80
2021/11/27 12:20:47;;;;;;;2.53;2.37;;;8.50;99.40;;;;;;10537169;28;20220;-80
2021/11/27 12:26:15;;;;;;;2.30;2.10;;;8.60;98.90;;;;;;10509243;28;20206;-81
2021/11/27 12:31:22;;;;;;;2.63;2.43;;;8.60;99.20;;;;;;10554043;28;20223;-80
2021/11/27 12:36:42;;;;;;;1.90;1.77;;;8.60;99.20;;;;;;10532469;28;20211;-80
2021/11/27 12:41:47;;;;;;;2.03;1.93;;;8.60;99.90;;;;;;10553646;28;20215;-80
2021/11/27 12:46:53;;;;;;;2.10;2.00;;;8.70;99.20;;;;;;10553563;28;20309;-80
2021/11/27 12:52:44;;;;;;;1.97;1.87;;;8.70;99.90;;;;;;10540612;28;20230;-80
2021/11/27 12:57:49;;;;;;;2.10;1.90;;;8.80;97.80;;;;;;10543570;28;20204;-80
2021/11/27 13:02:56;;;;;;;1.70;1.60;;;8.70;98.60;;;;;;10541078;28;20215;-80
2021/11/27 13:08:00;;;;;;;2.83;2.40;;;8.60;98.30;;;;;;10535638;28;20259;-80
2021/11/27 13:13:10;;;;;;;1.83;1.53;;;8.60;98.80;;;;;;10516355;28;20727;-79
2021/11/27 13:18:17;;;;;;;1.63;1.20;;;8.50;97.60;;;;;;10532839;28;20212;-80
2021/11/27 13:23:23;;;;;;;2.47;2.27;;;8.50;98.60;;;;;;10532885;28;20224;-80
2021/11/27 13:28:29;;;;;;;2.00;1.90;;;8.30;99.50;;;;;;10531364;28;20203;-79
2021/11/27 13:33:51;;;;;;;2.70;2.43;;;8.30;99.90;;;;;;10527285;28;20322;-80
2021/11/27 13:38:54;;;;;;;2.80;2.70;;;7.90;99.90;;;;;;10552303;28;20207;-80
2021/11/27 13:43:56;;;;;;;4.03;3.80;;;7.40;99.90;;;;;;10532443;28;20707;-81
2021/11/27 13:49:03;;;;;;;5.17;4.83;;;7.10;99.90;;;;;;10551532;28;20649;-80
2021/11/27 13:54:05;;;;;;;6.30;5.90;;;6.90;99.90;;;;;;10552029;28;20235;-80
2021/11/27 13:59:07;;;;;;;3.50;3.30;;;6.90;99.90;;;;;;10516599;28;20268;-80
2021/11/27 14:04:12;;;;;;;4.23;4.03;;;6.80;99.90;;;;;;10511674;28;20251;-80
2021/11/27 14:09:14;;;;;;;7.30;6.80;;;6.80;99.90;;;;;;10509906;28;20211;-80
2021/11/27 14:14:16;;;;;;;4.73;4.53;;;6.70;99.90;;;;;;10550416;28;20328;-80
2021/11/27 14:19:23;;;;;;;4.10;3.90;;;6.70;99.90;;;;;;10550755;28;20215;-80
2021/11/27 14:24:31;;;;;;;5.00;4.70;;;6.60;99.90;;;;;;10515129;28;20229;-80
2021/11/27 14:29:33;;;;;;;6.43;6.03;;;6.50;99.90;;;;;;10532516;28;20207;-81
2021/11/27 14:34:37;;;;;;;4.70;4.50;;;6.40;99.90;;;;;;10551814;22;20314;-78
2021/11/27 14:39:39;;;;;;;4.20;4.00;;;6.40;99.90;;;;;;10521880;28;20208;-78
2021/11/27 14:44:41;;;;;;;2.80;2.60;;;6.40;99.90;;;;;;10511322;28;20574;-78
2021/11/27 14:49:47;;;;;;;2.37;2.20;;;6.50;99.90;;;;;;10501456;28;20679;-79
2021/11/27 14:54:53;;;;;;;3.60;3.47;;;6.40;99.90;;;;;;10521483;28;20318;-79
2021/11/27 14:59:57;;;;;;;4.70;4.50;;;6.40;99.90;;;;;;10540037;28;20622;-79
2021/11/27 15:05:03;;;;;;;3.10;3.00;;;6.30;99.90;;;;;;10516995;28;20671;-79
2021/11/27 15:10:08;;;;;;;3.67;3.47;;;6.30;99.90;;;;;;10514852;28;20209;-79
2021/11/27 15:15:11;;;;;;;6.10;5.70;;;6.20;99.90;;;;;;10500032;28;20556;-79
2021/11/27 15:20:17;;;;;;;5.53;5.13;;;6.10;99.90;;;;;;10509928;28;20200;-79
2021/11/27 15:25:20;;;;;;;5.10;4.70;;;6.00;99.90;;;;;;10519124;28;20196;-78
2021/11/27 15:30:22;;;;;;;5.03;4.70;;;5.80;99.90;;;;;;10516513;28;20319;-79
2021/11/27 15:35:26;;;;;;;7.07;6.57;;;5.70;99.90;;;;;;10519996;28;20192;-79
2021/11/27 15:40:28;;;;;;;5.47;5.07;;;5.50;99.90;;;;;;10517551;28;20226;-79
2021/11/27 15:45:31;;;;;;;6.53;5.90;;;5.50;99.90;;;;;;10501740;28;20223;-79
2021/11/27 15:50:35;;;;;;;9.77;8.40;;;5.40;99.90;;;;;;10529016;28;20315;-79
2021/11/27 15:55:38;;;;;;;6.20;5.27;;;5.40;99.90;;;;;;10465512;28;20205;-79
2021/11/27 16:00:40;;;;;;;6.20;5.70;;;5.30;99.90;;;;;;10524463;28;20212;-79
2021/11/27 16:05:44;;;;;;;6.00;5.40;;;5.20;99.90;;;;;;10534064;28;20686;-79
2021/11/27 16:10:46;;;;;;;4.40;4.10;;;5.20;99.90;;;;;;10536002;28;20226;-78
2021/11/27 16:15:49;;;;;;;5.50;5.00;;;5.20;99.90;;;;;;10496129;28;20207;-79
2021/11/27 16:20:52;;;;;;;6.10;5.67;;;5.30;99.90;;;;;;10522051;28;20254;-79
2021/11/27 16:25:54;;;;;;;5.17;4.60;;;5.30;99.90;;;;;;10532057;28;20218;-78
2021/11/27 16:30:57;;;;;;;5.10;4.50;;;5.30;99.90;;;;;;10520796;28;20698;-78
2021/11/27 16:36:01;;;;;;;4.93;4.43;;;5.30;99.90;;;;;;10514723;28;20208;-78
2021/11/27 16:41:03;;;;;;;5.83;5.43;;;5.30;99.90;;;;;;10519315;28;20215;-79
2021/11/27 16:46:06;;;;;;;14.90;13.33;;;5.30;99.90;;;;;;10525962;28;20226;-78
2021/11/27 16:51:09;;;;;;;8.27;7.50;;;5.40;99.90;;;;;;10526002;28;20212;-78
2021/11/27 16:56:11;;;;;;;7.20;6.50;;;5.40;99.90;;;;;;10517826;28;20668;-78
2021/11/27 17:01:13;;;;;;;7.10;6.50;;;5.40;99.90;;;;;;10480888;28;20220;-78
2021/11/27 17:06:17;;;;;;;5.83;5.40;;;5.40;99.90;;;;;;10476315;28;20649;-79
2021/11/27 17:11:19;;;;;;;5.53;5.23;;;5.40;99.90;;;;;;10482491;28;20701;-78
2021/11/27 17:16:22;;;;;;;4.80;4.50;;;5.40;99.90;;;;;;10458336;28;20210;-78
2021/11/27 17:21:27;;;;;;;5.87;5.37;;;5.40;99.90;;;;;;10496509;28;20565;-79
2021/11/27 17:26:29;;;;;;;5.50;5.00;;;5.40;99.90;;;;;;10494861;28;20206;-78
2021/11/27 17:31:37;;;;;;;4.83;4.53;;;5.50;99.90;;;;;;10538092;28;20310;-79
2021/11/27 17:36:42;;;;;;;5.50;5.00;;;5.50;99.90;;;;;;10537222;28;20213;-79
2021/11/27 17:41:47;;;;;;;4.33;4.10;;;5.50;99.90;;;;;;10510943;28;20277;-78
2021/11/27 17:46:49;;;;;;;4.70;4.30;;;5.50;99.90;;;;;;10545986;28;20195;-79
2021/11/27 17:51:54;;;;;;;6.50;5.90;;;5.60;99.90;;;;;;10508520;28;20228;-78
2021/11/27 17:56:56;;;;;;;6.30;5.70;;;5.60;99.90;;;;;;10512072;28;20207;-79
2021/11/27 18:01:59;;;;;;;11.90;10.90;;;5.50;99.90;;;;;;10507222;28;20270;-78
2021/11/27 18:07:05;;;;;;;4.90;4.50;;;5.50;99.90;;;;;;10539423;28;20218;-79
2021/11/27 18:12:08;;;;;;;16.50;15.00;;;5.50;99.90;;;;;;10539646;28;20216;-79
2021/11/27 18:17:12;;;;;;;6.70;6.20;;;5.50;99.90;;;;;;10543975;28;20212;-79
2021/11/27 18:22:15;;;;;;;7.53;6.83;;;5.40;99.90;;;;;;10503976;28;20231;-79
2021/11/27 18:27:26;;;;;;;8.90;8.10;;;5.40;99.90;;;;;;10497782;28;20569;-79
2021/11/27 18:32:28;;;;;;;9.47;8.57;;;5.40;99.90;;;;;;10538735;28;20231;-79
2021/11/27 18:37:32;;;;;;;8.80;8.03;;;5.40;99.90;;;;;;10494520;28;20289;-79
2021/11/27 18:42:37;;;;;;;6.80;6.20;;;5.40;99.90;;;;;;10528207;28;20222;-80
2021/11/27 18:47:39;;;;;;;13.40;11.30;;;5.40;99.90;;;;;;10503628;28;20211;-79
2021/11/27 18:52:43;;;;;;;10.00;8.97;;;5.30;99.90;;;;;;10525105;28;20305;-80
2021/11/27 18:57:45;;;;;;;8.00;7.30;;;5.30;99.90;;;;;;10510672;28;20230;-80
2021/11/27 19:02:47;;;;;;;10.70;9.67;;;5.20;99.90;;;;;;10540906;28;20730;-79
2021/11/27 19:07:51;;;;;;;9.23;8.43;;;5.00;99.90;;;;;;10513325;28;20215;-80
2021/11/27 19:12:53;;;;;;;8.33;7.73;;;5.00;99.90;;;;;;10516303;28;20304;-80
2021/11/27 19:17:55;;;;;;;10.70;9.47;;;4.90;99.90;;;;;;10515369;28;20251;-80
2021/11/27 19:23:00;;;;;;;13.20;9.93;;;4.80;99.90;;;;;;10525292;28;20254;-79
2021/11/27 19:28:02;;;;;;;10.80;9.90;;;4.70;99.90;;;;;;10526680;28;20205;-80
2021/11/27 19:33:04;;;;;;;9.97;8.97;;;4.60;99.90;;;;;;10520835;28;20255;-79
2021/11/27 19:38:08;;;;;;;10.57;9.37;;;4.40;99.90;;;;;;10506522;28;20231;-79
2021/11/27 19:43:10;;;;;;;10.43;9.33;;;4.30;99.90;;;;;;10514708;28;20271;-80
2021/11/27 19:48:14;;;;;;;8.77;8.07;;;4.20;99.90;;;;;;10521073;28;20215;-80
2021/11/27 19:53:17;;;;;;;13.83;12.33;;;4.20;99.90;;;;;;10524557;28;20281;-79
2021/11/27 19:58:19;;;;;;;11.73;10.73;;;4.20;99.90;;;;;;10498857;28;20223;-78
2021/11/27 20:03:22;;;;;;;13.53;11.37;;;4.20;99.90;;;;;;10524827;28;20220;-79
2021/11/27 20:08:25;;;;;;;11.77;10.60;;;4.20;99.90;;;;;;10525756;28;20601;-80
2021/11/27 20:13:39;;;;;;;12.70;11.50;;;4.20;99.90;;;;;;10509661;28;20236;-80
2021/11/27 20:18:42;;;;;;;11.60;10.47;;;4.20;99.90;;;;;;10546797;28;20623;-80
2021/11/27 20:23:46;;;;;;;13.17;11.83;;;4.10;99.90;;;;;;10530104;28;20270;-79
2021/11/27 20:28:48;;;;;;;15.20;13.70;;;4.10;99.90;;;;;;10531047;28;20210;-80
2021/11/27 20:33:51;;;;;;;13.23;12.07;;;4.10;99.90;;;;;;10515571;22;20236;-80
2021/11/27 20:38:55;;;;;;;13.37;12.00;;;4.10;99.90;;;;;;10493681;28;20221;-80
2021/11/27 20:43:58;;;;;;;12.47;11.20;;;4.10;99.90;;;;;;10495176;28;20235;-81
2021/11/27 20:49:01;;;;;;;11.67;10.60;;;4.10;99.90;;;;;;10489414;28;20660;-80
2021/11/27 20:54:06;;;;;;;8.27;7.63;;;4.10;99.90;;;;;;10458032;28;20240;-81
2021/11/27 20:59:10;;;;;;;8.60;7.80;;;4.10;99.90;;;;;;10460889;28;20205;-79
2021/11/27 21:04:16;;;;;;;7.87;7.07;;;4.10;99.90;;;;;;10485729;28;20218;-80
2021/11/27 21:09:20;;;;;;;9.50;8.60;;;4.10;99.90;;;;;;10508267;28;20228;-80
2021/11/27 21:14:23;;;;;;;9.00;8.10;;;4.20;99.90;;;;;;10478320;28;20233;-82
2021/11/27 21:19:25;;;;;;;10.20;9.20;;;4.20;99.90;;;;;;10447987;28;20212;-79
2021/11/27 21:24:30;;;;;;;9.37;8.47;;;4.20;99.90;;;;;;10461888;28;20220;-80
2021/11/27 21:29:32;;;;;;;9.27;8.47;;;4.20;99.90;;;;;;10462648;28;20204;-80
2021/11/27 21:34:37;;;;;;;8.90;8.20;;;4.20;99.90;;;;;;10464772;28;20276;-80
2021/11/27 21:39:44;;;;;;;8.97;8.07;;;4.30;99.90;;;;;;10472742;28;20208;-80
2021/11/27 21:44:47;;;;;;;7.53;6.87;;;4.30;99.90;;;;;;10485875;28;20280;-81
2021/11/27 21:49:49;;;;;;;5.87;5.40;;;4.30;99.90;;;;;;10464929;28;20284;-81
2021/11/27 21:54:53;;;;;;;6.87;6.27;;;4.30;99.90;;;;;;10460598;28;20286;-79
2021/11/27 21:59:55;;;;;;;8.00;6.80;;;4.30;99.90;;;;;;10459494;28;20244;-81
2021/11/27 22:04:57;;;;;;;6.10;5.60;;;4.40;99.90;;;;;;10486475;28;20215;-80
2021/11/27 22:10:01;;;;;;;6.80;6.30;;;4.50;99.90;;;;;;10507974;28;20210;-80
2021/11/27 22:15:03;;;;;;;7.03;6.53;;;4.50;99.90;;;;;;10478693;28;20641;-79
2021/11/27 22:20:07;;;;;;;6.43;5.83;;;4.50;99.90;;;;;;10503575;28;20224;-79
2021/11/27 22:25:12;;;;;;;6.57;6.00;;;4.40;99.90;;;;;;10497914;28;20221;-79
2021/11/27 22:30:16;;;;;;;6.63;6.03;;;4.50;99.90;;;;;;10470181;28;20204;-79
2021/11/27 22:35:19;;;;;;;7.10;6.50;;;4.60;99.90;;;;;;10500817;28;20226;-79
2021/11/27 22:40:22;;;;;;;5.30;4.90;;;4.60;99.90;;;;;;10481700;28;20205;-78
2021/11/27 22:45:24;;;;;;;7.10;4.83;;;4.60;99.90;;;;;;10462468;28;20235;-78
2021/11/27 22:50:27;;;;;;;6.93;6.40;;;4.70;99.90;;;;;;10465207;28;20200;-80
2021/11/27 22:55:30;;;;;;;7.03;6.47;;;4.80;99.90;;;;;;10482364;28;20243;-80
2021/11/27 23:01:05;;;;;;;7.43;6.83;;;4.90;99.90;;;;;;10498187;28;20201;-80
2021/11/27 23:06:08;;;;;;;8.87;7.90;;;4.90;99.90;;;;;;10468392;28;20221;-78
2021/11/27 23:11:14;;;;;;;7.57;6.87;;;4.90;99.90;;;;;;10469156;28;20255;-79
2021/11/27 23:16:18;;;;;;;8.03;7.27;;;5.00;99.90;;;;;;10468182;28;20236;-77
2021/11/27 23:21:21;;;;;;;8.20;7.40;;;5.10;99.90;;;;;;10483848;28;20254;-80
2021/11/27 23:26:25;;;;;;;8.03;7.33;;;5.10;99.90;;;;;;10499825;28;20214;-78
2021/11/27 23:31:28;;;;;;;8.97;8.10;;;5.20;99.90;;;;;;10474485;28;20328;-79
2021/11/27 23:36:30;;;;;;;7.37;6.77;;;5.20;99.90;;;;;;10482562;28;20311;-79
2021/11/27 23:41:34;;;;;;;7.10;6.40;;;5.20;99.90;;;;;;10482109;28;20303;-78
2021/11/27 23:46:38;;;;;;;7.67;6.97;;;5.20;99.90;;;;;;10502235;28;20766;-80
2021/11/27 23:51:42;;;;;;;7.90;7.07;;;5.20;99.90;;;;;;10492677;28;20270;-79
2021/11/27 23:56:52;;;;;;;8.40;7.10;;;5.30;99.90;;;;;;10482936;28;20216;-79
